EZY86MJ EGCC-LGKO
Flight info
| Callsign | EZY86MJ |
|---|---|
| Flight time | N/A |
| Altitude | 37000 |
| Route | LISTO L612 HON/N0455F350 L15 FINMA/N0453F370 L15 BIG UL9 KONAN UL607 KOK DCT MATUG DCT BOMBI DCT DETEV DCT DINKU DCT BESNI DCT LATLO DCT OBEDI DCT MOSAV DCT GUBOK DCT VABEK UL603 OLOTA DCT DISOR UL608 FSK UG18 MES UN139 LURUS UL995 KOPAR |
| Aircraft | A320/M-SDE3FGHIRWY/LB1 |
Departure
| Time | N/A |
|---|---|
| Airport | Manchester Airport (EGCC) |
Arrival
| Time | 2026-04-29 13:08 |
|---|---|
| Airport | Kos International Airport "Ippokratis" (LGKO) |
| Time | Latitude | Longitude | Altitude | Speed | Heading |
|---|---|---|---|---|---|
| 2026-04-29 10:09 | 51.04472 | 2.95395 | 37270 ft | 426 kts | 103° |
| 2026-04-29 10:09 | 51.02961 | 3.04430 | 37269 ft | 426 kts | 104° |
| 2026-04-29 10:10 | 51.01430 | 3.13529 | 37264 ft | 426 kts | 103° |
| 2026-04-29 10:10 | 50.99889 | 3.22627 | 37264 ft | 427 kts | 103° |
| 2026-04-29 10:11 | 50.98342 | 3.31728 | 37274 ft | 427 kts | 104° |
| 2026-04-29 10:11 | 50.96785 | 3.40839 | 37263 ft | 428 kts | 103° |
| 2026-04-29 10:12 | 50.95218 | 3.49953 | 37264 ft | 429 kts | 104° |
| 2026-04-29 10:12 | 50.93637 | 3.59084 | 37270 ft | 429 kts | 103° |
| 2026-04-29 10:13 | 50.92052 | 3.68202 | 37269 ft | 429 kts | 103° |
| 2026-04-29 10:13 | 50.90457 | 3.77335 | 37276 ft | 430 kts | 103° |
| 2026-04-29 10:14 | 50.88861 | 3.86478 | 37261 ft | 431 kts | 104° |
| 2026-04-29 10:14 | 50.87264 | 3.95575 | 37273 ft | 432 kts | 103° |
| 2026-04-29 10:15 | 50.85635 | 4.04746 | 37281 ft | 432 kts | 103° |
| 2026-04-29 10:15 | 50.84002 | 4.13925 | 37295 ft | 433 kts | 103° |
| 2026-04-29 10:16 | 50.82638 | 4.21548 | 37298 ft | 433 kts | 103° |
| 2026-04-29 10:16 | 50.80718 | 4.32200 | 37304 ft | 433 kts | 104° |
| 2026-04-29 10:17 | 50.79325 | 4.39887 | 37316 ft | 433 kts | 104° |
| 2026-04-29 10:17 | 50.77386 | 4.50552 | 37299 ft | 435 kts | 104° |
| 2026-04-29 10:18 | 50.75710 | 4.59745 | 37291 ft | 436 kts | 104° |
| 2026-04-29 10:18 | 50.74019 | 4.68955 | 37304 ft | 437 kts | 104° |
| 2026-04-29 10:19 | 50.72318 | 4.78182 | 37279 ft | 438 kts | 104° |
| 2026-04-29 10:19 | 50.70625 | 4.87367 | 37278 ft | 439 kts | 105° |
| 2026-04-29 10:20 | 50.68895 | 4.96648 | 37280 ft | 440 kts | 103° |
| 2026-04-29 10:20 | 50.67152 | 5.05898 | 37273 ft | 441 kts | 104° |
| 2026-04-29 10:21 | 50.65406 | 5.15161 | 37297 ft | 441 kts | 104° |
| 2026-04-29 10:21 | 50.63656 | 5.24453 | 37281 ft | 443 kts | 104° |
| 2026-04-29 10:22 | 50.61890 | 5.33747 | 37266 ft | 443 kts | 105° |
| 2026-04-29 10:22 | 50.60117 | 5.42995 | 37267 ft | 444 kts | 104° |
| 2026-04-29 10:23 | 50.58313 | 5.52355 | 37276 ft | 444 kts | 104° |
| 2026-04-29 10:23 | 50.56530 | 5.61602 | 37286 ft | 445 kts | 104° |
| 2026-04-29 10:24 | 50.54735 | 5.70920 | 37265 ft | 445 kts | 104° |
| 2026-04-29 10:24 | 50.52923 | 5.80239 | 37264 ft | 446 kts | 105° |
| 2026-04-29 10:25 | 50.51089 | 5.89556 | 37273 ft | 446 kts | 104° |
| 2026-04-29 10:25 | 50.49254 | 5.98881 | 37267 ft | 447 kts | 104° |
| 2026-04-29 10:26 | 50.47413 | 6.08232 | 37259 ft | 449 kts | 105° |
| 2026-04-29 10:26 | 50.45563 | 6.17547 | 37251 ft | 450 kts | 104° |
| 2026-04-29 10:27 | 50.42733 | 6.31643 | 37237 ft | 452 kts | 104° |
| 2026-04-29 10:28 | 50.41095 | 6.41149 | 37242 ft | 450 kts | 99° |
| 2026-04-29 10:28 | 50.39789 | 6.50753 | 37250 ft | 451 kts | 99° |
| 2026-04-29 10:29 | 50.38453 | 6.60369 | 37241 ft | 452 kts | 99° |
| 2026-04-29 10:29 | 50.37107 | 6.69991 | 37252 ft | 452 kts | 99° |
| 2026-04-29 10:30 | 50.35763 | 6.79586 | 37255 ft | 453 kts | 100° |
| 2026-04-29 10:30 | 50.34404 | 6.89216 | 37268 ft | 453 kts | 100° |
| 2026-04-29 10:31 | 50.33268 | 6.97224 | 37289 ft | 453 kts | 100° |
| 2026-04-29 10:31 | 50.31672 | 7.08429 | 37282 ft | 454 kts | 100° |
| 2026-04-29 10:32 | 50.30511 | 7.16506 | 37277 ft | 454 kts | 100° |
| 2026-04-29 10:32 | 50.29119 | 7.26072 | 37277 ft | 454 kts | 100° |
| 2026-04-29 10:33 | 50.27717 | 7.35698 | 37273 ft | 454 kts | 100° |
| 2026-04-29 10:33 | 50.26319 | 7.45323 | 37275 ft | 455 kts | 100° |
| 2026-04-29 10:34 | 50.24903 | 7.54959 | 37267 ft | 455 kts | 100° |
| 2026-04-29 10:34 | 50.23470 | 7.64595 | 37270 ft | 456 kts | 101° |
| 2026-04-29 10:35 | 50.22031 | 7.74237 | 37274 ft | 456 kts | 101° |
| 2026-04-29 10:35 | 50.20581 | 7.83890 | 37293 ft | 457 kts | 101° |
| 2026-04-29 10:36 | 50.19123 | 7.93556 | 37275 ft | 458 kts | 101° |
| 2026-04-29 10:36 | 50.17652 | 8.03213 | 37271 ft | 458 kts | 101° |
| 2026-04-29 10:37 | 50.16168 | 8.12914 | 37272 ft | 459 kts | 101° |
| 2026-04-29 10:37 | 50.14688 | 8.22534 | 37273 ft | 459 kts | 101° |
| 2026-04-29 10:38 | 50.13193 | 8.32218 | 37283 ft | 460 kts | 101° |
| 2026-04-29 10:38 | 50.11690 | 8.41926 | 37276 ft | 461 kts | 101° |
| 2026-04-29 10:39 | 50.10173 | 8.51640 | 37262 ft | 462 kts | 102° |
| 2026-04-29 10:39 | 50.08640 | 8.61380 | 37260 ft | 463 kts | 102° |
| 2026-04-29 10:40 | 50.07088 | 8.71142 | 37265 ft | 465 kts | 102° |
| 2026-04-29 10:40 | 50.05358 | 8.80836 | 37270 ft | 467 kts | 110° |
| 2026-04-29 10:41 | 50.02598 | 8.89928 | 37270 ft | 468 kts | 114° |
| 2026-04-29 10:41 | 49.99756 | 8.99036 | 37276 ft | 468 kts | 114° |
| 2026-04-29 10:42 | 49.96911 | 9.08153 | 37277 ft | 469 kts | 114° |
| 2026-04-29 10:42 | 49.94066 | 9.17249 | 37283 ft | 468 kts | 114° |
| 2026-04-29 10:43 | 49.91210 | 9.26328 | 37288 ft | 468 kts | 114° |
| 2026-04-29 10:43 | 49.88334 | 9.35397 | 37292 ft | 468 kts | 114° |
| 2026-04-29 10:44 | 49.85447 | 9.44454 | 37287 ft | 468 kts | 114° |
| 2026-04-29 10:44 | 49.82362 | 9.53243 | 37289 ft | 470 kts | 124° |
| 2026-04-29 10:45 | 49.77921 | 9.60672 | 37279 ft | 472 kts | 136° |
| 2026-04-29 10:45 | 49.73120 | 9.67622 | 37264 ft | 473 kts | 136° |
| 2026-04-29 10:46 | 49.68304 | 9.74577 | 37267 ft | 474 kts | 136° |
| 2026-04-29 10:46 | 49.63480 | 9.81533 | 37271 ft | 474 kts | 136° |
| 2026-04-29 10:47 | 49.58649 | 9.88483 | 37275 ft | 475 kts | 136° |
| 2026-04-29 10:47 | 49.53814 | 9.95421 | 37278 ft | 475 kts | 137° |
| 2026-04-29 10:48 | 49.49001 | 10.02305 | 37270 ft | 476 kts | 137° |
| 2026-04-29 10:48 | 49.44134 | 10.09244 | 37273 ft | 477 kts | 137° |
| 2026-04-29 10:49 | 49.39261 | 10.16177 | 37275 ft | 477 kts | 137° |
| 2026-04-29 10:49 | 49.34380 | 10.23095 | 37282 ft | 477 kts | 137° |
| 2026-04-29 10:50 | 49.29526 | 10.29968 | 37299 ft | 478 kts | 137° |
| 2026-04-29 10:50 | 49.24638 | 10.36865 | 37282 ft | 478 kts | 138° |
| 2026-04-29 10:51 | 49.19785 | 10.43835 | 37280 ft | 479 kts | 136° |
| 2026-04-29 10:51 | 49.15023 | 10.50977 | 37288 ft | 479 kts | 136° |
| 2026-04-29 10:52 | 49.10285 | 10.58120 | 37278 ft | 479 kts | 136° |
| 2026-04-29 10:52 | 49.05508 | 10.65213 | 37291 ft | 479 kts | 137° |
| 2026-04-29 10:53 | 49.00694 | 10.72282 | 37257 ft | 480 kts | 137° |
| 2026-04-29 10:53 | 48.95910 | 10.79290 | 37255 ft | 480 kts | 137° |
| 2026-04-29 10:54 | 48.91092 | 10.86348 | 37242 ft | 481 kts | 137° |
| 2026-04-29 10:54 | 48.86261 | 10.93402 | 37245 ft | 481 kts | 137° |
| 2026-04-29 10:55 | 48.81427 | 11.00443 | 37257 ft | 482 kts | 137° |
| 2026-04-29 10:55 | 48.76593 | 11.07484 | 37236 ft | 482 kts | 137° |
| 2026-04-29 10:56 | 48.71770 | 11.14474 | 37238 ft | 483 kts | 138° |
| 2026-04-29 10:56 | 48.66908 | 11.21488 | 37236 ft | 483 kts | 138° |
| 2026-04-29 10:57 | 48.62088 | 11.28619 | 37229 ft | 484 kts | 135° |
| 2026-04-29 10:57 | 48.57556 | 11.36159 | 37251 ft | 485 kts | 132° |
| 2026-04-29 10:58 | 48.53117 | 11.43825 | 37242 ft | 485 kts | 133° |
| 2026-04-29 10:58 | 48.48641 | 11.51357 | 37186 ft | 485 kts | 134° |
| 2026-04-29 10:59 | 48.44073 | 11.58859 | 37197 ft | 486 kts | 134° |
| 2026-04-29 10:59 | 48.39482 | 11.66359 | 37204 ft | 487 kts | 134° |
| 2026-04-29 11:00 | 48.34899 | 11.73880 | 37216 ft | 488 kts | 134° |
| 2026-04-29 11:00 | 48.30310 | 11.81408 | 37216 ft | 489 kts | 134° |
| 2026-04-29 11:01 | 48.25700 | 11.88929 | 37219 ft | 489 kts | 134° |
| 2026-04-29 11:01 | 48.21078 | 11.96443 | 37219 ft | 489 kts | 134° |
| 2026-04-29 11:02 | 48.16482 | 12.03896 | 37238 ft | 489 kts | 134° |
| 2026-04-29 11:02 | 48.11856 | 12.11373 | 37225 ft | 490 kts | 134° |
| 2026-04-29 11:03 | 48.07212 | 12.18854 | 37222 ft | 490 kts | 134° |
| 2026-04-29 11:03 | 48.02555 | 12.26335 | 37222 ft | 491 kts | 134° |
| 2026-04-29 11:04 | 47.97903 | 12.33802 | 37195 ft | 491 kts | 135° |
| 2026-04-29 11:04 | 47.93275 | 12.41222 | 37203 ft | 492 kts | 135° |
| 2026-04-29 11:05 | 47.88605 | 12.48685 | 37216 ft | 492 kts | 135° |
| 2026-04-29 11:05 | 47.83918 | 12.56121 | 37215 ft | 492 kts | 135° |
| 2026-04-29 11:06 | 47.79228 | 12.63543 | 37222 ft | 492 kts | 135° |
| 2026-04-29 11:06 | 47.74539 | 12.70957 | 37231 ft | 492 kts | 135° |
| 2026-04-29 11:07 | 47.69849 | 12.78357 | 37214 ft | 492 kts | 135° |
| 2026-04-29 11:07 | 47.65104 | 12.85693 | 37215 ft | 492 kts | 137° |
| 2026-04-29 11:08 | 47.60274 | 12.92794 | 37212 ft | 492 kts | 138° |
| 2026-04-29 11:08 | 47.55378 | 12.99900 | 37202 ft | 492 kts | 138° |
| 2026-04-29 11:09 | 47.50511 | 13.07026 | 37196 ft | 492 kts | 137° |
| 2026-04-29 11:09 | 47.45649 | 13.14180 | 37151 ft | 493 kts | 138° |
| 2026-04-29 11:10 | 47.40786 | 13.21321 | 37147 ft | 494 kts | 138° |
| 2026-04-29 11:10 | 47.35893 | 13.28462 | 37155 ft | 495 kts | 138° |
| 2026-04-29 11:11 | 47.31343 | 13.36094 | 37158 ft | 498 kts | 125° |
| 2026-04-29 11:11 | 47.27451 | 13.44556 | 37168 ft | 499 kts | 126° |
| 2026-04-29 11:12 | 47.23570 | 13.52961 | 37165 ft | 499 kts | 126° |
| 2026-04-29 11:12 | 47.19654 | 13.61393 | 37135 ft | 499 kts | 126° |
| 2026-04-29 11:13 | 47.15733 | 13.69819 | 37149 ft | 499 kts | 126° |
| 2026-04-29 11:13 | 47.11803 | 13.78234 | 37171 ft | 500 kts | 126° |
| 2026-04-29 11:14 | 47.07861 | 13.86649 | 37180 ft | 500 kts | 126° |
| 2026-04-29 11:14 | 47.03915 | 13.95052 | 37195 ft | 500 kts | 126° |
| 2026-04-29 11:15 | 46.99963 | 14.03436 | 37199 ft | 500 kts | 126° |
| 2026-04-29 11:15 | 46.96001 | 14.11817 | 37204 ft | 501 kts | 126° |
| 2026-04-29 11:16 | 46.92030 | 14.20202 | 37216 ft | 501 kts | 126° |
| 2026-04-29 11:16 | 46.88055 | 14.28581 | 37207 ft | 501 kts | 126° |
| 2026-04-29 11:17 | 46.84093 | 14.36897 | 37227 ft | 501 kts | 126° |
| 2026-04-29 11:17 | 46.80092 | 14.45248 | 37241 ft | 502 kts | 126° |
| 2026-04-29 11:18 | 46.76077 | 14.53598 | 37238 ft | 502 kts | 127° |
| 2026-04-29 11:18 | 46.72064 | 14.61936 | 37237 ft | 502 kts | 127° |
| 2026-04-29 11:19 | 46.68728 | 14.68862 | 37236 ft | 502 kts | 127° |
| 2026-04-29 11:19 | 46.64693 | 14.77206 | 37245 ft | 503 kts | 127° |
| 2026-04-29 11:20 | 46.60645 | 14.85542 | 37229 ft | 503 kts | 127° |
| 2026-04-29 11:20 | 46.56603 | 14.93849 | 37243 ft | 503 kts | 127° |
| 2026-04-29 11:21 | 46.52581 | 15.02096 | 37255 ft | 503 kts | 127° |
| 2026-04-29 11:21 | 46.48525 | 15.10388 | 37264 ft | 504 kts | 127° |
| 2026-04-29 11:22 | 46.44457 | 15.18672 | 37267 ft | 504 kts | 127° |
| 2026-04-29 11:22 | 46.40381 | 15.26947 | 37266 ft | 504 kts | 127° |
| 2026-04-29 11:23 | 46.36291 | 15.35222 | 37263 ft | 504 kts | 127° |
| 2026-04-29 11:23 | 46.32227 | 15.43426 | 37259 ft | 504 kts | 127° |
| 2026-04-29 11:24 | 46.28124 | 15.51678 | 37265 ft | 505 kts | 127° |
| 2026-04-29 11:24 | 46.24022 | 15.59916 | 37265 ft | 505 kts | 128° |
| 2026-04-29 11:25 | 46.19903 | 15.68145 | 37262 ft | 505 kts | 128° |
| 2026-04-29 11:25 | 46.15782 | 15.76348 | 37263 ft | 505 kts | 128° |
| 2026-04-29 11:26 | 46.09625 | 15.88594 | 37267 ft | 505 kts | 128° |
| 2026-04-29 11:26 | 46.05494 | 15.96792 | 37265 ft | 505 kts | 128° |
| 2026-04-29 11:27 | 46.01350 | 16.04973 | 37263 ft | 505 kts | 128° |
| 2026-04-29 11:27 | 45.97204 | 16.13121 | 37262 ft | 505 kts | 128° |
| 2026-04-29 11:28 | 45.93052 | 16.21273 | 37260 ft | 505 kts | 128° |
| 2026-04-29 11:28 | 45.88927 | 16.29348 | 37259 ft | 505 kts | 128° |
| 2026-04-29 11:29 | 45.84764 | 16.37469 | 37273 ft | 505 kts | 128° |
| 2026-04-29 11:29 | 45.80593 | 16.45589 | 37265 ft | 505 kts | 128° |
| 2026-04-29 11:30 | 45.76423 | 16.53694 | 37253 ft | 506 kts | 128° |
| 2026-04-29 11:30 | 45.72242 | 16.61797 | 37245 ft | 506 kts | 128° |
| 2026-04-29 11:31 | 45.68048 | 16.69887 | 37262 ft | 505 kts | 129° |
| 2026-04-29 11:31 | 45.63853 | 16.77957 | 37256 ft | 505 kts | 129° |
| 2026-04-29 11:32 | 45.59653 | 16.86020 | 37257 ft | 506 kts | 129° |
| 2026-04-29 11:32 | 45.55461 | 16.94025 | 37253 ft | 506 kts | 129° |
| 2026-04-29 11:33 | 45.51172 | 17.01993 | 37258 ft | 506 kts | 130° |
| 2026-04-29 11:33 | 45.46821 | 17.09878 | 37251 ft | 506 kts | 130° |
| 2026-04-29 11:34 | 45.42468 | 17.17752 | 37244 ft | 506 kts | 130° |
| 2026-04-29 11:34 | 45.38125 | 17.25658 | 37245 ft | 506 kts | 130° |
| 2026-04-29 11:35 | 45.33785 | 17.33549 | 37250 ft | 506 kts | 130° |
| 2026-04-29 11:35 | 45.29430 | 17.41426 | 37246 ft | 507 kts | 130° |
| 2026-04-29 11:36 | 45.25066 | 17.49296 | 37242 ft | 507 kts | 130° |
| 2026-04-29 11:36 | 45.20725 | 17.57108 | 37246 ft | 508 kts | 130° |
| 2026-04-29 11:37 | 45.16348 | 17.64964 | 37229 ft | 508 kts | 130° |
| 2026-04-29 11:37 | 45.11964 | 17.72817 | 37240 ft | 508 kts | 130° |
| 2026-04-29 11:38 | 45.07561 | 17.80657 | 37245 ft | 508 kts | 131° |
| 2026-04-29 11:38 | 45.02990 | 17.88274 | 37265 ft | 505 kts | 138° |
| 2026-04-29 11:39 | 44.98023 | 17.95320 | 37254 ft | 506 kts | 138° |
| 2026-04-29 11:39 | 44.93053 | 18.02359 | 37241 ft | 506 kts | 138° |
| 2026-04-29 11:40 | 44.88078 | 18.09385 | 37225 ft | 506 kts | 138° |
| 2026-04-29 11:40 | 44.83126 | 18.16357 | 37238 ft | 506 kts | 138° |
| 2026-04-29 11:41 | 44.78138 | 18.23365 | 37231 ft | 506 kts | 138° |
| 2026-04-29 11:41 | 44.73149 | 18.30366 | 37221 ft | 506 kts | 138° |
| 2026-04-29 11:42 | 44.68155 | 18.37343 | 37218 ft | 506 kts | 138° |
| 2026-04-29 11:42 | 44.63188 | 18.44261 | 37196 ft | 505 kts | 138° |
| 2026-04-29 11:43 | 44.58193 | 18.51206 | 37200 ft | 505 kts | 138° |
| 2026-04-29 11:43 | 44.53193 | 18.58144 | 37200 ft | 505 kts | 138° |
| 2026-04-29 11:44 | 44.48191 | 18.65066 | 37205 ft | 505 kts | 139° |
| 2026-04-29 11:44 | 44.43184 | 18.71977 | 37203 ft | 505 kts | 139° |
| 2026-04-29 11:45 | 44.38172 | 18.78866 | 37175 ft | 505 kts | 139° |
| 2026-04-29 11:45 | 44.33193 | 18.85709 | 37173 ft | 504 kts | 139° |
| 2026-04-29 11:46 | 44.28181 | 18.92573 | 37180 ft | 504 kts | 139° |
| 2026-04-29 11:46 | 44.23170 | 18.99417 | 37186 ft | 504 kts | 139° |
| 2026-04-29 11:47 | 44.18149 | 19.06267 | 37181 ft | 504 kts | 139° |
| 2026-04-29 11:47 | 44.13127 | 19.13087 | 37140 ft | 504 kts | 139° |
| 2026-04-29 11:48 | 44.08098 | 19.19905 | 37161 ft | 504 kts | 139° |
| 2026-04-29 11:48 | 44.03065 | 19.26718 | 37150 ft | 504 kts | 139° |
| 2026-04-29 11:49 | 43.98070 | 19.33462 | 37150 ft | 504 kts | 139° |
| 2026-04-29 11:49 | 43.93032 | 19.40231 | 37135 ft | 504 kts | 139° |
| 2026-04-29 11:50 | 43.87991 | 19.47004 | 37126 ft | 504 kts | 139° |
| 2026-04-29 11:50 | 43.82947 | 19.53758 | 37132 ft | 504 kts | 139° |
| 2026-04-29 11:51 | 43.77904 | 19.60496 | 37136 ft | 503 kts | 139° |
| 2026-04-29 11:51 | 43.72890 | 19.67180 | 37135 ft | 503 kts | 139° |
| 2026-04-29 11:52 | 43.67843 | 19.73886 | 37147 ft | 503 kts | 139° |
| 2026-04-29 11:52 | 43.62789 | 19.80589 | 37103 ft | 503 kts | 139° |
| 2026-04-29 11:53 | 43.57729 | 19.87279 | 37116 ft | 503 kts | 139° |
| 2026-04-29 11:53 | 43.52671 | 19.93940 | 37115 ft | 503 kts | 139° |
| 2026-04-29 11:54 | 43.47607 | 20.00600 | 37123 ft | 503 kts | 139° |
| 2026-04-29 11:54 | 43.42576 | 20.07214 | 37113 ft | 503 kts | 139° |
| 2026-04-29 11:55 | 43.37505 | 20.13864 | 37082 ft | 502 kts | 139° |
| 2026-04-29 11:55 | 43.32443 | 20.20487 | 37094 ft | 502 kts | 139° |
| 2026-04-29 11:56 | 43.27373 | 20.27095 | 37107 ft | 503 kts | 139° |
| 2026-04-29 11:56 | 43.22295 | 20.33700 | 37102 ft | 502 kts | 139° |
| 2026-04-29 11:57 | 43.17253 | 20.40239 | 37100 ft | 502 kts | 139° |
| 2026-04-29 11:57 | 43.12171 | 20.46810 | 37077 ft | 502 kts | 139° |
| 2026-04-29 11:58 | 43.07097 | 20.53361 | 37094 ft | 501 kts | 139° |
| 2026-04-29 11:58 | 43.02026 | 20.59896 | 37101 ft | 501 kts | 139° |
| 2026-04-29 11:59 | 42.96967 | 20.66427 | 37106 ft | 500 kts | 139° |
| 2026-04-29 11:59 | 42.91945 | 20.73006 | 37100 ft | 500 kts | 139° |
| 2026-04-29 12:00 | 42.86932 | 20.79586 | 37105 ft | 500 kts | 139° |
| 2026-04-29 12:00 | 42.81898 | 20.86154 | 37102 ft | 501 kts | 139° |
| 2026-04-29 12:01 | 42.76850 | 20.92696 | 37100 ft | 501 kts | 139° |
| 2026-04-29 12:01 | 42.71798 | 20.99242 | 37098 ft | 501 kts | 139° |
| 2026-04-29 12:02 | 42.66778 | 21.05733 | 37099 ft | 501 kts | 139° |
| 2026-04-29 12:02 | 42.61715 | 21.12247 | 37079 ft | 501 kts | 139° |
| 2026-04-29 12:03 | 42.56643 | 21.18762 | 37098 ft | 501 kts | 139° |
| 2026-04-29 12:03 | 42.51581 | 21.25272 | 37101 ft | 501 kts | 139° |
| 2026-04-29 12:04 | 42.46518 | 21.31764 | 37100 ft | 501 kts | 139° |
| 2026-04-29 12:04 | 42.41480 | 21.38198 | 37095 ft | 500 kts | 139° |
| 2026-04-29 12:05 | 42.36408 | 21.44655 | 37072 ft | 500 kts | 139° |
| 2026-04-29 12:05 | 42.31338 | 21.51095 | 37086 ft | 500 kts | 139° |
| 2026-04-29 12:06 | 42.26267 | 21.57523 | 37089 ft | 500 kts | 139° |
| 2026-04-29 12:06 | 42.21181 | 21.63919 | 37090 ft | 499 kts | 140° |
| 2026-04-29 12:07 | 42.15979 | 21.70121 | 37083 ft | 499 kts | 142° |
| 2026-04-29 12:07 | 42.11608 | 21.75192 | 37081 ft | 499 kts | 142° |
| 2026-04-29 12:08 | 42.06366 | 21.81305 | 37079 ft | 498 kts | 141° |
| 2026-04-29 12:08 | 42.01147 | 21.87441 | 37092 ft | 498 kts | 141° |
| 2026-04-29 12:09 | 41.95940 | 21.93574 | 37081 ft | 498 kts | 141° |
| 2026-04-29 12:09 | 41.90719 | 21.99689 | 37083 ft | 498 kts | 141° |
| 2026-04-29 12:10 | 41.85503 | 22.05795 | 37065 ft | 497 kts | 141° |
| 2026-04-29 12:10 | 41.80287 | 22.11880 | 37090 ft | 497 kts | 141° |
| 2026-04-29 12:11 | 41.75065 | 22.17945 | 37090 ft | 497 kts | 141° |
| 2026-04-29 12:11 | 41.69868 | 22.23971 | 37088 ft | 497 kts | 141° |
| 2026-04-29 12:12 | 41.64641 | 22.30027 | 37088 ft | 497 kts | 141° |
| 2026-04-29 12:12 | 41.59411 | 22.36073 | 37074 ft | 497 kts | 141° |
| 2026-04-29 12:13 | 41.54186 | 22.42101 | 37090 ft | 495 kts | 141° |
| 2026-04-29 12:13 | 41.48969 | 22.48106 | 37113 ft | 495 kts | 141° |
| 2026-04-29 12:14 | 41.43759 | 22.54091 | 37108 ft | 494 kts | 142° |
| 2026-04-29 12:14 | 41.38581 | 22.60029 | 37114 ft | 494 kts | 142° |
| 2026-04-29 12:15 | 41.33365 | 22.65981 | 37088 ft | 493 kts | 141° |
| 2026-04-29 12:15 | 41.28151 | 22.71915 | 37108 ft | 493 kts | 141° |
| 2026-04-29 12:16 | 41.23194 | 22.78211 | 37110 ft | 494 kts | 131° |
| 2026-04-29 12:16 | 41.18769 | 22.85208 | 37118 ft | 494 kts | 131° |
| 2026-04-29 12:17 | 41.14357 | 22.92140 | 37113 ft | 494 kts | 131° |
| 2026-04-29 12:17 | 41.09837 | 22.99004 | 37105 ft | 493 kts | 138° |
| 2026-04-29 12:18 | 41.04610 | 23.04829 | 37092 ft | 491 kts | 143° |
| 2026-04-29 12:18 | 40.99311 | 23.10526 | 37105 ft | 490 kts | 143° |
| 2026-04-29 12:19 | 40.94013 | 23.16219 | 37114 ft | 490 kts | 143° |
| 2026-04-29 12:19 | 40.88707 | 23.21920 | 37114 ft | 490 kts | 143° |
| 2026-04-29 12:20 | 40.83443 | 23.27560 | 37113 ft | 490 kts | 143° |
| 2026-04-29 12:20 | 40.78142 | 23.33226 | 37098 ft | 489 kts | 143° |
| 2026-04-29 12:21 | 40.72846 | 23.38880 | 37118 ft | 489 kts | 143° |
| 2026-04-29 12:21 | 40.67554 | 23.44505 | 37121 ft | 488 kts | 143° |
| 2026-04-29 12:22 | 40.62262 | 23.50125 | 37128 ft | 488 kts | 143° |
| 2026-04-29 12:22 | 40.57007 | 23.55698 | 37127 ft | 488 kts | 143° |
| 2026-04-29 12:23 | 40.51717 | 23.61297 | 37117 ft | 488 kts | 143° |
| 2026-04-29 12:23 | 40.46419 | 23.66890 | 37126 ft | 487 kts | 143° |
| 2026-04-29 12:24 | 40.41157 | 23.72426 | 37128 ft | 487 kts | 143° |
| 2026-04-29 12:24 | 40.35870 | 23.77983 | 37136 ft | 486 kts | 143° |
| 2026-04-29 12:25 | 40.30584 | 23.83528 | 37136 ft | 486 kts | 143° |
| 2026-04-29 12:26 | 40.22657 | 23.91814 | 37136 ft | 486 kts | 143° |
| 2026-04-29 12:26 | 40.17370 | 23.97324 | 37134 ft | 486 kts | 143° |
| 2026-04-29 12:27 | 40.12119 | 24.02805 | 37134 ft | 486 kts | 143° |
| 2026-04-29 12:27 | 40.06839 | 24.08303 | 37139 ft | 486 kts | 143° |
| 2026-04-29 12:28 | 40.01546 | 24.13790 | 37126 ft | 486 kts | 144° |
| 2026-04-29 12:28 | 39.96257 | 24.19263 | 37131 ft | 485 kts | 144° |
| 2026-04-29 12:29 | 39.90968 | 24.24720 | 37134 ft | 485 kts | 144° |
| 2026-04-29 12:29 | 39.85681 | 24.30164 | 37132 ft | 485 kts | 144° |
| 2026-04-29 12:30 | 39.80389 | 24.35605 | 37130 ft | 484 kts | 144° |
| 2026-04-29 12:30 | 39.75104 | 24.41036 | 37131 ft | 484 kts | 144° |
| 2026-04-29 12:31 | 39.69817 | 24.46455 | 37126 ft | 484 kts | 144° |
| 2026-04-29 12:31 | 39.64533 | 24.51857 | 37127 ft | 483 kts | 144° |
| 2026-04-29 12:32 | 39.59250 | 24.57244 | 37131 ft | 483 kts | 144° |
| 2026-04-29 12:32 | 39.53969 | 24.62623 | 37128 ft | 483 kts | 144° |
| 2026-04-29 12:33 | 39.48681 | 24.68000 | 37123 ft | 482 kts | 144° |
| 2026-04-29 12:33 | 39.43431 | 24.73327 | 37118 ft | 482 kts | 144° |
| 2026-04-29 12:34 | 39.38147 | 24.78668 | 37121 ft | 482 kts | 144° |
| 2026-04-29 12:34 | 39.32859 | 24.84010 | 37121 ft | 482 kts | 144° |
| 2026-04-29 12:35 | 39.27580 | 24.89336 | 37123 ft | 481 kts | 144° |
| 2026-04-29 12:35 | 39.22321 | 24.94618 | 37121 ft | 481 kts | 144° |
| 2026-04-29 12:36 | 39.17034 | 24.99925 | 37116 ft | 481 kts | 144° |
| 2026-04-29 12:36 | 39.11750 | 25.05213 | 37113 ft | 481 kts | 144° |
| 2026-04-29 12:37 | 39.06461 | 25.10497 | 37112 ft | 481 kts | 144° |
| 2026-04-29 12:37 | 39.01163 | 25.15793 | 37110 ft | 482 kts | 144° |
| 2026-04-29 12:38 | 38.95866 | 25.21075 | 37114 ft | 482 kts | 144° |
| 2026-04-29 12:38 | 38.90591 | 25.26315 | 37104 ft | 482 kts | 144° |
| 2026-04-29 12:39 | 38.85283 | 25.31594 | 37111 ft | 482 kts | 144° |
| 2026-04-29 12:39 | 38.79972 | 25.36858 | 37117 ft | 482 kts | 144° |
| 2026-04-29 12:40 | 38.74663 | 25.42096 | 37116 ft | 482 kts | 144° |
| 2026-04-29 12:40 | 38.69353 | 25.47339 | 37109 ft | 482 kts | 144° |
| 2026-04-29 12:41 | 38.64042 | 25.52573 | 37092 ft | 481 kts | 144° |
| 2026-04-29 12:41 | 38.58731 | 25.57798 | 37100 ft | 481 kts | 144° |
| 2026-04-29 12:42 | 38.53453 | 25.62975 | 37103 ft | 481 kts | 145° |
| 2026-04-29 12:42 | 38.48143 | 25.68173 | 37102 ft | 481 kts | 145° |
| 2026-04-29 12:43 | 38.42827 | 25.73363 | 37097 ft | 481 kts | 145° |
| 2026-04-29 12:43 | 38.37516 | 25.78550 | 37087 ft | 481 kts | 145° |
| 2026-04-29 12:44 | 38.32207 | 25.83731 | 37095 ft | 481 kts | 145° |
| 2026-04-29 12:44 | 38.26867 | 25.88865 | 37081 ft | 480 kts | 149° |
| 2026-04-29 12:45 | 38.20914 | 25.92508 | 37090 ft | 472 kts | 164° |
| 2026-04-29 12:45 | 38.14721 | 25.95315 | 37077 ft | 473 kts | 163° |
| 2026-04-29 12:46 | 38.09495 | 25.97706 | 37071 ft | 473 kts | 163° |
| 2026-04-29 12:46 | 38.03292 | 26.00541 | 37077 ft | 474 kts | 163° |
| 2026-04-29 12:47 | 37.97120 | 26.03356 | 37078 ft | 474 kts | 163° |
| 2026-04-29 12:47 | 37.90901 | 26.06168 | 37083 ft | 474 kts | 163° |
| 2026-04-29 12:48 | 37.84681 | 26.08972 | 37079 ft | 474 kts | 163° |
| 2026-04-29 12:48 | 37.78453 | 26.11792 | 37089 ft | 474 kts | 163° |
| 2026-04-29 12:49 | 37.72279 | 26.14578 | 37085 ft | 474 kts | 163° |
| 2026-04-29 12:49 | 37.66062 | 26.17381 | 37085 ft | 474 kts | 163° |
| 2026-04-29 12:50 | 37.60897 | 26.19700 | 37080 ft | 473 kts | 163° |
| 2026-04-29 12:50 | 37.53639 | 26.22956 | 36733 ft | 474 kts | 163° |
| 2026-04-29 12:50 | 37.50514 | 26.24352 | 35739 ft | 478 kts | 163° |
| 2026-04-29 12:51 | 37.47381 | 26.25748 | 34863 ft | 478 kts | 163° |
| 2026-04-29 12:51 | 37.44243 | 26.27150 | 33886 ft | 479 kts | 162° |
| 2026-04-29 12:51 | 37.41109 | 26.28554 | 32856 ft | 478 kts | 162° |
| 2026-04-29 12:51 | 37.37980 | 26.29955 | 31780 ft | 478 kts | 162° |
| 2026-04-29 12:52 | 37.34844 | 26.31356 | 30671 ft | 478 kts | 162° |
| 2026-04-29 12:52 | 37.31705 | 26.32759 | 29430 ft | 479 kts | 162° |
| 2026-04-29 12:52 | 37.28566 | 26.34156 | 28161 ft | 479 kts | 162° |
| 2026-04-29 12:52 | 37.25415 | 26.35552 | 26872 ft | 479 kts | 162° |
| 2026-04-29 12:53 | 37.22267 | 26.36942 | 25593 ft | 480 kts | 162° |
| 2026-04-29 12:53 | 37.20177 | 26.37867 | 24774 ft | 480 kts | 162° |
| 2026-04-29 12:53 | 37.15963 | 26.39732 | 23102 ft | 480 kts | 162° |
| 2026-04-29 12:53 | 37.12812 | 26.41123 | 21829 ft | 480 kts | 162° |
| 2026-04-29 12:54 | 37.09684 | 26.42504 | 20930 ft | 472 kts | 162° |
| 2026-04-29 12:54 | 37.06644 | 26.43848 | 19995 ft | 467 kts | 162° |
| 2026-04-29 12:54 | 37.04586 | 26.44759 | 19396 ft | 463 kts | 162° |
| 2026-04-29 12:54 | 37.00584 | 26.46528 | 18197 ft | 458 kts | 162° |
| 2026-04-29 12:55 | 36.97603 | 26.47845 | 17318 ft | 452 kts | 162° |
| 2026-04-29 12:55 | 36.94652 | 26.49168 | 16435 ft | 448 kts | 160° |
| 2026-04-29 12:55 | 36.91897 | 26.50957 | 15614 ft | 446 kts | 147° |
| 2026-04-29 12:55 | 36.89509 | 26.53391 | 14832 ft | 442 kts | 135° |
| 2026-04-29 12:56 | 36.88152 | 26.55347 | 14307 ft | 440 kts | 127° |
| 2026-04-29 12:56 | 36.86570 | 26.58597 | 13519 ft | 437 kts | 115° |
| 2026-04-29 12:56 | 36.85398 | 26.62020 | 12768 ft | 431 kts | 112° |
| 2026-04-29 12:56 | 36.84232 | 26.65444 | 12051 ft | 425 kts | 112° |
| 2026-04-29 12:57 | 36.82869 | 26.68690 | 11345 ft | 418 kts | 122° |
| 2026-04-29 12:57 | 36.81138 | 26.71439 | 10917 ft | 387 kts | 132° |
| 2026-04-29 12:57 | 36.79393 | 26.73815 | 10643 ft | 357 kts | 131° |
| 2026-04-29 12:57 | 36.77794 | 26.76019 | 10485 ft | 329 kts | 131° |
| 2026-04-29 12:58 | 36.76302 | 26.78088 | 10080 ft | 313 kts | 131° |
| 2026-04-29 12:58 | 36.74869 | 26.80078 | 9898 ft | 307 kts | 131° |
| 2026-04-29 12:58 | 36.73439 | 26.82058 | 9778 ft | 304 kts | 131° |
| 2026-04-29 12:58 | 36.72027 | 26.84005 | 9646 ft | 303 kts | 131° |
| 2026-04-29 12:59 | 36.70626 | 26.85934 | 9514 ft | 305 kts | 131° |
| 2026-04-29 12:59 | 36.69324 | 26.87987 | 9383 ft | 301 kts | 120° |
| 2026-04-29 12:59 | 36.68349 | 26.90299 | 9259 ft | 301 kts | 114° |
| 2026-04-29 12:59 | 36.67427 | 26.92627 | 9023 ft | 301 kts | 114° |
| 2026-04-29 13:00 | 36.66492 | 26.94975 | 8603 ft | 300 kts | 114° |
| 2026-04-29 13:00 | 36.65576 | 26.97261 | 8378 ft | 286 kts | 115° |
| 2026-04-29 13:00 | 36.64720 | 26.99388 | 8187 ft | 266 kts | 114° |
| 2026-04-29 13:00 | 36.63902 | 27.01418 | 7708 ft | 260 kts | 115° |
| 2026-04-29 13:01 | 36.63101 | 27.03405 | 7195 ft | 255 kts | 114° |
| 2026-04-29 13:01 | 36.62305 | 27.05388 | 6552 ft | 257 kts | 114° |
| 2026-04-29 13:01 | 36.61519 | 27.07343 | 6179 ft | 246 kts | 113° |
| 2026-04-29 13:01 | 36.60779 | 27.09176 | 6023 ft | 229 kts | 112° |
| 2026-04-29 13:02 | 36.60077 | 27.10946 | 5905 ft | 226 kts | 109° |
| 2026-04-29 13:02 | 36.59698 | 27.12820 | 5808 ft | 222 kts | 88° |
| 2026-04-29 13:02 | 36.59811 | 27.14708 | 5545 ft | 223 kts | 73° |
| 2026-04-29 13:02 | 36.60339 | 27.16526 | 5185 ft | 225 kts | 64° |
| 2026-04-29 13:03 | 36.60915 | 27.18357 | 4839 ft | 229 kts | 66° |
| 2026-04-29 13:03 | 36.61583 | 27.20165 | 4457 ft | 230 kts | 50° |
| 2026-04-29 13:03 | 36.62879 | 27.21212 | 4110 ft | 222 kts | 9° |
| 2026-04-29 13:03 | 36.64333 | 27.20932 | 3797 ft | 211 kts | 332° |
| 2026-04-29 13:04 | 36.65554 | 27.20000 | 3500 ft | 201 kts | 329° |
| 2026-04-29 13:04 | 36.66714 | 27.19081 | 3233 ft | 193 kts | 329° |
| 2026-04-29 13:04 | 36.67812 | 27.18206 | 2923 ft | 180 kts | 329° |
| 2026-04-29 13:04 | 36.68838 | 27.17391 | 2671 ft | 170 kts | 328° |
| 2026-04-29 13:05 | 36.69794 | 27.16638 | 2429 ft | 159 kts | 331° |
| 2026-04-29 13:05 | 36.70694 | 27.15933 | 2221 ft | 147 kts | 331° |
| 2026-04-29 13:05 | 36.71524 | 27.15285 | 2037 ft | 135 kts | 331° |
| 2026-04-29 13:05 | 36.72296 | 27.14683 | 1862 ft | 129 kts | 331° |
| 2026-04-29 13:06 | 36.73056 | 27.14093 | 1691 ft | 128 kts | 331° |
| 2026-04-29 13:06 | 36.73807 | 27.13504 | 1530 ft | 127 kts | 330° |
| 2026-04-29 13:06 | 36.74555 | 27.12922 | 1367 ft | 127 kts | 330° |
| 2026-04-29 13:06 | 36.75306 | 27.12335 | 1184 ft | 129 kts | 330° |
| 2026-04-29 13:07 | 36.76062 | 27.11737 | 1014 ft | 129 kts | 329° |
| 2026-04-29 13:07 | 36.76817 | 27.11139 | 858 ft | 127 kts | 330° |
| 2026-04-29 13:07 | 36.77556 | 27.10564 | 682 ft | 123 kts | 331° |
| 2026-04-29 13:07 | 36.78294 | 27.10009 | 483 ft | 124 kts | 332° |
| 2026-04-29 13:08 | 36.79015 | 27.09461 | 399 ft | 109 kts | 327° |
| 2026-04-29 13:08 | 36.79481 | 27.09096 | 417 ft | 58 kts | 327° |
| 2026-04-29 13:08 | 36.79742 | 27.08894 | 418 ft | 37 kts | 328° |
| 2026-04-29 13:08 | 36.79945 | 27.08735 | 411 ft | 32 kts | 328° |
| 2026-04-29 13:09 | 36.80120 | 27.08598 | 418 ft | 27 kts | 328° |
| 2026-04-29 13:09 | 36.80275 | 27.08480 | 419 ft | 20 kts | 329° |
| 2026-04-29 13:09 | 36.80356 | 27.08502 | 417 ft | 14 kts | 88° |
| 2026-04-29 13:09 | 36.80332 | 27.08626 | 421 ft | 14 kts | 104° |
| 2026-04-29 13:10 | 36.80277 | 27.08718 | 420 ft | 13 kts | 148° |
| 2026-04-29 13:10 | 36.80188 | 27.08786 | 415 ft | 15 kts | 147° |
| 2026-04-29 13:10 | 36.80109 | 27.08849 | 415 ft | 10 kts | 149° |
| 2026-04-29 13:10 | 36.80052 | 27.08892 | 416 ft | 9 kts | 147° |
| 2026-04-29 13:11 | 36.80012 | 27.08923 | 419 ft | 0 kts | 147° |
| 2026-04-29 13:11 | 36.80008 | 27.08939 | 416 ft | 5 kts | 94° |
| 2026-04-29 13:11 | 36.80027 | 27.08976 | 417 ft | 4 kts | 55° |
| 2026-04-29 13:11 | 36.80040 | 27.09000 | 419 ft | 3 kts | 58° |
| 2026-04-29 13:12 | 36.80045 | 27.09010 | 412 ft | 0 kts | 58° |